Time;durP1;ratioP1;P1;durP2;ratioP2;P2;SDS_P1;SDS_P2;PMS_P1;PMS_P2;Temp;Humidity;BMP_temperature;BMP_pressure;BME280_temperature;BME280_humidity;BME280_pressure;Samples;Min_cycle;Max_cycle;Signal;HPM_P1;HPM_P2
2023/07/09 00:01:42;;;;;;;9.80;7.00;;;;;;;;;;4876172;29;20053;-85
2023/07/09 00:04:28;;;;;;;9.38;7.30;;;;;;;;;;4864530;29;20045;-85
2023/07/09 00:07:32;;;;;;;8.77;6.60;;;;;;;;;;4869513;29;20053;-85
2023/07/09 00:10:20;;;;;;;12.90;6.82;;;;;;;;;;4870542;29;20049;-84
2023/07/09 00:13:07;;;;;;;9.73;5.57;;;;;;;;;;4864080;29;20049;-84
2023/07/09 00:15:57;;;;;;;6.63;4.82;;;;;;;;;;4864418;29;20057;-85
2023/07/09 00:18:43;;;;;;;5.78;4.50;;;;;;;;;;4864802;29;20049;-84
2023/07/09 00:21:33;;;;;;;7.60;4.60;;;;;;;;;;4880681;29;20053;-85
2023/07/09 00:24:31;;;;;;;6.90;4.53;;;;;;;;;;4863500;29;20057;-85
2023/07/09 00:27:19;;;;;;;8.68;4.75;;;;;;;;;;4862722;29;20491;-84
2023/07/09 00:30:05;;;;;;;12.55;4.88;;;;;;;;;;4863564;29;20057;-84
2023/07/09 00:32:51;;;;;;;6.50;4.10;;;;;;;;;;4855954;29;20487;-84
2023/07/09 00:35:36;;;;;;;6.45;4.40;;;;;;;;;;4869230;29;20053;-84
2023/07/09 00:38:23;;;;;;;5.55;4.43;;;;;;;;;;4863701;29;20395;-84
2023/07/09 00:41:17;;;;;;;7.25;4.80;;;;;;;;;;4875426;29;20480;-84
2023/07/09 00:44:29;;;;;;;7.47;4.37;;;;;;;;;;4868675;29;20089;-84
2023/07/09 00:47:21;;;;;;;6.32;4.40;;;;;;;;;;4869613;29;20491;-84
2023/07/09 00:50:10;;;;;;;8.40;4.60;;;;;;;;;;4863866;29;20042;-84
2023/07/09 00:52:59;;;;;;;5.32;4.53;;;;;;;;;;4862370;29;20041;-83
2023/07/09 00:56:10;;;;;;;6.53;4.80;;;;;;;;;;4869720;29;20049;-84
2023/07/09 00:59:01;;;;;;;8.40;4.63;;;;;;;;;;4863215;29;20399;-84
2023/07/09 01:01:47;;;;;;;7.60;4.63;;;;;;;;;;4855640;29;20045;-83
2023/07/09 01:04:32;;;;;;;6.25;4.05;;;;;;;;;;4868870;29;20057;-84
2023/07/09 01:07:19;;;;;;;8.65;4.68;;;;;;;;;;4863077;29;20053;-84
2023/07/09 01:10:08;;;;;;;9.75;4.47;;;;;;;;;;4863075;29;20038;-84
2023/07/09 01:12:53;;;;;;;8.32;4.57;;;;;;;;;;4867996;29;20049;-84
2023/07/09 01:15:39;;;;;;;8.95;4.78;;;;;;;;;;4863220;29;20045;-84
2023/07/09 01:18:25;;;;;;;6.18;4.30;;;;;;;;;;4868370;29;20041;-83
2023/07/09 01:21:16;;;;;;;7.13;4.68;;;;;;;;;;4863064;29;20049;-83
2023/07/09 01:24:37;;;;;;;5.63;4.20;;;;;;;;;;4862919;29;20054;-82
2023/07/09 01:27:26;;;;;;;7.68;4.88;;;;;;;;;;4862793;29;20045;-83
2023/07/09 01:30:34;;;;;;;7.95;4.40;;;;;;;;;;4862594;29;20057;-84
2023/07/09 01:33:22;;;;;;;6.43;4.50;;;;;;;;;;4868112;29;20033;-84
2023/07/09 01:36:10;;;;;;;6.57;4.68;;;;;;;;;;4867099;29;20053;-84
2023/07/09 01:38:56;;;;;;;6.47;4.35;;;;;;;;;;4862799;29;20049;-84
2023/07/09 01:41:41;;;;;;;6.55;4.90;;;;;;;;;;4867415;29;20053;-84
2023/07/09 01:44:29;;;;;;;8.77;4.10;;;;;;;;;;4867873;29;20045;-84
2023/07/09 01:47:15;;;;;;;8.32;4.38;;;;;;;;;;4862432;29;20045;-84
2023/07/09 01:50:00;;;;;;;8.27;4.57;;;;;;;;;;4867704;29;20045;-84
2023/07/09 01:52:49;;;;;;;7.32;4.43;;;;;;;;;;4862530;29;20045;-84
2023/07/09 01:55:34;;;;;;;6.57;4.30;;;;;;;;;;4867387;29;20049;-85
2023/07/09 01:58:19;;;;;;;9.32;4.88;;;;;;;;;;4867648;29;20480;-85
2023/07/09 02:01:04;;;;;;;7.57;4.60;;;;;;;;;;4867286;29;20400;-85
2023/07/09 02:03:50;;;;;;;6.90;4.30;;;;;;;;;;4867861;29;20112;-85
2023/07/09 02:06:35;;;;;;;6.47;4.30;;;;;;;;;;4867523;29;20041;-84
2023/07/09 02:09:21;;;;;;;9.05;4.20;;;;;;;;;;4862025;29;20061;-83
2023/07/09 02:12:09;;;;;;;10.02;4.32;;;;;;;;;;4861961;29;20038;-83
2023/07/09 02:14:54;;;;;;;9.02;4.78;;;;;;;;;;4866913;29;20057;-83
2023/07/09 02:17:40;;;;;;;6.13;4.45;;;;;;;;;;4862034;29;20053;-83
2023/07/09 02:20:26;;;;;;;7.22;4.35;;;;;;;;;;4867081;29;20049;-83
2023/07/09 02:23:11;;;;;;;6.15;4.55;;;;;;;;;;4861506;29;20042;-83
2023/07/09 02:25:58;;;;;;;4.78;3.95;;;;;;;;;;4860882;29;20056;-83
2023/07/09 02:28:43;;;;;;;9.00;4.05;;;;;;;;;;4866713;29;20053;-83
2023/07/09 02:31:29;;;;;;;7.85;4.32;;;;;;;;;;4863602;29;20049;-83
2023/07/09 02:34:15;;;;;;;7.43;4.47;;;;;;;;;;4864766;29;20049;-83
2023/07/09 02:37:01;;;;;;;8.57;4.82;;;;;;;;;;4866749;29;20053;-84
2023/07/09 02:39:47;;;;;;;5.47;4.53;;;;;;;;;;4861839;29;20053;-84
2023/07/09 02:42:32;;;;;;;9.18;4.63;;;;;;;;;;4861374;29;20042;-84
2023/07/09 02:45:18;;;;;;;6.45;4.43;;;;;;;;;;4866664;29;20053;-83
2023/07/09 02:48:03;;;;;;;6.60;4.68;;;;;;;;;;4866478;29;20053;-83
2023/07/09 02:50:55;;;;;;;6.20;4.28;;;;;;;;;;4866536;29;20045;-83
2023/07/09 02:53:41;;;;;;;12.45;4.60;;;;;;;;;;4867157;29;20053;-84
2023/07/09 02:56:26;;;;;;;6.95;4.55;;;;;;;;;;4861398;29;20054;-83
2023/07/09 02:59:12;;;;;;;9.02;4.32;;;;;;;;;;4861601;29;20049;-83
2023/07/09 03:01:57;;;;;;;6.45;4.57;;;;;;;;;;4866603;29;20136;-82
2023/07/09 03:04:43;;;;;;;5.50;4.57;;;;;;;;;;4853642;29;20057;-82
2023/07/09 03:07:28;;;;;;;6.28;4.45;;;;;;;;;;4873361;29;20041;-81
2023/07/09 03:10:14;;;;;;;6.03;4.35;;;;;;;;;;4861304;29;20411;-82
2023/07/09 03:13:00;;;;;;;12.20;4.72;;;;;;;;;;4866381;29;20037;-82
2023/07/09 03:15:56;;;;;;;7.75;4.85;;;;;;;;;;4861485;29;20049;-83
2023/07/09 03:18:42;;;;;;;7.07;4.30;;;;;;;;;;4861261;29;20038;-82
2023/07/09 03:21:28;;;;;;;9.68;4.18;;;;;;;;;;4866553;29;20057;-81
2023/07/09 03:24:18;;;;;;;10.60;5.03;;;;;;;;;;4866650;29;20053;-82
2023/07/09 03:27:04;;;;;;;10.20;5.00;;;;;;;;;;4860388;29;20076;-82
2023/07/09 03:29:49;;;;;;;12.25;5.20;;;;;;;;;;4860968;29;20046;-82
2023/07/09 03:32:34;;;;;;;8.18;4.93;;;;;;;;;;4866575;29;20057;-82
2023/07/09 03:35:21;;;;;;;6.97;5.05;;;;;;;;;;4861114;29;20408;-82
2023/07/09 03:38:07;;;;;;;6.85;4.75;;;;;;;;;;4860770;29;20049;-82
2023/07/09 03:40:57;;;;;;;8.88;4.13;;;;;;;;;;4867251;29;20050;-83
2023/07/09 03:43:43;;;;;;;10.43;4.32;;;;;;;;;;4841083;29;20050;-81
2023/07/09 03:46:29;;;;;;;7.43;4.32;;;;;;;;;;4861344;29;20049;-83
2023/07/09 03:49:14;;;;;;;7.28;4.15;;;;;;;;;;4860252;29;20058;-83
2023/07/09 03:52:00;;;;;;;6.40;4.22;;;;;;;;;;4860404;29;20476;-83
2023/07/09 03:54:45;;;;;;;6.60;4.15;;;;;;;;;;4861008;29;20050;-83
2023/07/09 03:57:31;;;;;;;6.82;3.95;;;;;;;;;;4862471;29;20049;-83
2023/07/09 04:00:17;;;;;;;6.35;4.28;;;;;;;;;;4864095;29;20053;-83
2023/07/09 04:03:03;;;;;;;6.95;4.30;;;;;;;;;;4863873;29;20041;-83
2023/07/09 04:05:48;;;;;;;7.28;4.20;;;;;;;;;;4864403;29;20057;-82
2023/07/09 04:08:34;;;;;;;8.40;4.47;;;;;;;;;;4863952;29;20041;-83
2023/07/09 04:11:20;;;;;;;8.90;4.28;;;;;;;;;;4863322;29;20045;-83
2023/07/09 04:14:07;;;;;;;8.10;4.45;;;;;;;;;;4863871;29;20037;-83
2023/07/09 04:16:52;;;;;;;7.35;4.25;;;;;;;;;;4869464;29;20049;-83
2023/07/09 04:19:38;;;;;;;9.18;4.53;;;;;;;;;;4862889;29;20045;-83
2023/07/09 04:22:23;;;;;;;10.43;4.30;;;;;;;;;;4868945;29;20047;-83
2023/07/09 04:25:11;;;;;;;7.68;5.18;;;;;;;;;;4864119;29;20463;-83
2023/07/09 04:27:56;;;;;;;9.43;5.30;;;;;;;;;;4863133;29;20050;-84
2023/07/09 04:30:51;;;;;;;11.15;4.40;;;;;;;;;;4862382;29;20058;-84
2023/07/09 04:33:36;;;;;;;8.40;4.75;;;;;;;;;;4863764;29;20034;-82
2023/07/09 04:36:22;;;;;;;10.40;5.00;;;;;;;;;;4863660;29;20049;-81
2023/07/09 04:39:09;;;;;;;8.80;5.70;;;;;;;;;;4863615;29;20057;-83
2023/07/09 04:41:54;;;;;;;6.28;4.40;;;;;;;;;;4862657;29;20049;-83
2023/07/09 04:44:40;;;;;;;9.80;4.72;;;;;;;;;;4872734;29;20399;-83
2023/07/09 04:47:25;;;;;;;8.82;4.50;;;;;;;;;;4868675;29;20045;-83
2023/07/09 04:50:11;;;;;;;5.55;4.13;;;;;;;;;;4863375;29;20049;-83
2023/07/09 04:52:59;;;;;;;9.13;4.88;;;;;;;;;;4862779;29;20085;-83
2023/07/09 04:55:44;;;;;;;7.70;4.00;;;;;;;;;;4863357;29;20053;-84
2023/07/09 04:58:30;;;;;;;7.40;4.00;;;;;;;;;;4863240;29;20053;-83
2023/07/09 05:01:24;;;;;;;6.38;3.85;;;;;;;;;;4863063;29;20046;-84
2023/07/09 05:04:16;;;;;;;6.15;4.05;;;;;;;;;;4868392;29;20041;-83
2023/07/09 05:07:01;;;;;;;6.40;3.80;;;;;;;;;;4855485;29;20053;-84
2023/07/09 05:09:47;;;;;;;8.02;3.60;;;;;;;;;;4867698;29;20050;-84
2023/07/09 05:12:33;;;;;;;11.05;5.20;;;;;;;;;;4863454;29;20053;-85
2023/07/09 05:15:20;;;;;;;6.00;4.13;;;;;;;;;;4863629;29;20424;-83
2023/07/09 05:18:06;;;;;;;7.22;4.35;;;;;;;;;;4861949;29;20053;-84
2023/07/09 05:20:51;;;;;;;5.85;3.35;;;;;;;;;;4863007;29;20045;-84
2023/07/09 05:23:37;;;;;;;8.52;4.13;;;;;;;;;;4862736;29;20050;-84
2023/07/09 05:26:22;;;;;;;7.97;3.85;;;;;;;;;;4868404;29;20480;-84
2023/07/09 05:29:07;;;;;;;12.35;4.07;;;;;;;;;;4862926;29;20388;-84
2023/07/09 05:31:53;;;;;;;8.00;3.53;;;;;;;;;;4867777;29;20053;-85
2023/07/09 05:34:38;;;;;;;7.82;4.03;;;;;;;;;;4867814;29;20057;-85
2023/07/09 05:37:24;;;;;;;6.05;3.85;;;;;;;;;;4862611;29;20057;-85
2023/07/09 05:40:10;;;;;;;6.10;3.92;;;;;;;;;;4863105;29;20388;-83
2023/07/09 05:42:55;;;;;;;5.97;3.33;;;;;;;;;;4863918;29;20038;-86
2023/07/09 05:45:41;;;;;;;5.60;3.67;;;;;;;;;;4864714;29;20053;-85
2023/07/09 05:48:27;;;;;;;7.72;3.72;;;;;;;;;;4867477;29;20499;-85
2023/07/09 05:51:14;;;;;;;5.10;3.80;;;;;;;;;;4868806;29;20049;-86
2023/07/09 05:54:08;;;;;;;5.72;3.38;;;;;;;;;;4861241;29;20042;-84
2023/07/09 05:57:13;;;;;;;6.30;3.60;;;;;;;;;;4861962;29;20045;-86
2023/07/09 05:59:59;;;;;;;6.82;3.85;;;;;;;;;;4862161;29;20049;-84
2023/07/09 06:02:47;;;;;;;9.65;3.83;;;;;;;;;;4860908;29;20427;-85
2023/07/09 06:06:12;;;;;;;6.75;3.28;;;;;;;;;;4867399;29;20053;-84
2023/07/09 06:09:06;;;;;;;6.07;3.72;;;;;;;;;;4855219;29;20053;-83
2023/07/09 06:11:53;;;;;;;11.55;3.95;;;;;;;;;;4861865;29;20400;-83
2023/07/09 06:14:42;;;;;;;4.78;3.35;;;;;;;;;;4866991;29;20399;-85
2023/07/09 06:17:31;;;;;;;10.70;4.50;;;;;;;;;;4854213;29;20050;-84
2023/07/09 06:20:17;;;;;;;11.70;6.18;;;;;;;;;;4866988;29;20049;-84
2023/07/09 06:23:05;;;;;;;9.32;4.57;;;;;;;;;;4860675;29;20053;-85
2023/07/09 06:25:52;;;;;;;8.38;4.45;;;;;;;;;;4867004;29;20053;-84
2023/07/09 06:28:37;;;;;;;7.75;4.30;;;;;;;;;;4867060;29;20053;-85
2023/07/09 06:31:24;;;;;;;8.73;4.63;;;;;;;;;;4861675;29;20399;-87
2023/07/09 06:34:09;;;;;;;7.13;3.70;;;;;;;;;;4862171;29;20041;-75
2023/07/09 06:36:56;;;;;;;8.43;4.00;;;;;;;;;;4867981;29;20152;-78
2023/07/09 06:39:42;;;;;;;11.13;4.95;;;;;;;;;;4868024;29;20057;-78
2023/07/09 06:42:27;;;;;;;8.25;4.93;;;;;;;;;;4867849;29;20399;-75
2023/07/09 06:45:24;;;;;;;11.90;4.50;;;;;;;;;;4866742;29;20049;-77
2023/07/09 06:48:09;;;;;;;10.88;4.82;;;;;;;;;;4861798;29;20049;-77
2023/07/09 06:50:56;;;;;;;8.30;4.40;;;;;;;;;;4861723;29;20053;-76
2023/07/09 06:53:43;;;;;;;9.82;4.40;;;;;;;;;;4861362;29;20392;-77
2023/07/09 06:56:29;;;;;;;7.93;4.15;;;;;;;;;;4861128;29;20041;-72
2023/07/09 06:59:15;;;;;;;7.40;4.03;;;;;;;;;;4861591;29;20167;-75
2023/07/09 07:02:00;;;;;;;9.88;4.93;;;;;;;;;;4860832;29;20053;-76
2023/07/09 07:04:45;;;;;;;6.88;4.00;;;;;;;;;;4861361;29;20049;-77
2023/07/09 07:07:30;;;;;;;8.07;3.78;;;;;;;;;;4867662;29;20053;-75
2023/07/09 07:10:16;;;;;;;5.60;3.78;;;;;;;;;;4861334;29;20046;-75
2023/07/09 07:13:01;;;;;;;9.65;4.20;;;;;;;;;;4861534;29;20472;-75
2023/07/09 07:15:49;;;;;;;13.02;4.60;;;;;;;;;;4861068;29;20037;-76
2023/07/09 07:18:35;;;;;;;8.13;4.25;;;;;;;;;;4861305;29;20057;-76
2023/07/09 07:21:20;;;;;;;9.75;4.53;;;;;;;;;;4861196;29;20045;-77
2023/07/09 07:24:06;;;;;;;5.72;3.95;;;;;;;;;;4867047;29;20404;-77
2023/07/09 07:26:51;;;;;;;13.23;4.45;;;;;;;;;;4861130;29;20045;-75
2023/07/09 07:29:37;;;;;;;5.80;4.07;;;;;;;;;;4860959;29;20053;-76
2023/07/09 07:32:23;;;;;;;8.43;4.35;;;;;;;;;;4861131;29;20045;-78
2023/07/09 07:35:09;;;;;;;7.95;4.03;;;;;;;;;;4870713;29;20045;-76
2023/07/09 07:37:54;;;;;;;9.27;4.15;;;;;;;;;;4870333;29;20045;-78
2023/07/09 07:40:44;;;;;;;8.63;3.70;;;;;;;;;;4870895;29;20045;-76
2023/07/09 07:43:30;;;;;;;9.15;4.18;;;;;;;;;;4864499;29;20472;-76
2023/07/09 07:46:16;;;;;;;7.60;4.28;;;;;;;;;;4864516;29;20049;-76
2023/07/09 07:49:01;;;;;;;8.02;3.88;;;;;;;;;;4864492;29;20045;-74
2023/07/09 07:51:48;;;;;;;6.65;3.88;;;;;;;;;;4870321;29;20050;-76
2023/07/09 07:54:34;;;;;;;9.77;4.28;;;;;;;;;;4864398;29;20053;-73
2023/07/09 07:57:24;;;;;;;7.88;3.63;;;;;;;;;;4864424;29;20057;-72
2023/07/09 08:00:09;;;;;;;8.07;3.75;;;;;;;;;;4864191;29;20424;-72
2023/07/09 08:02:57;;;;;;;7.38;4.15;;;;;;;;;;4864009;29;20054;-72
2023/07/09 08:05:48;;;;;;;8.52;4.05;;;;;;;;;;4870074;29;20045;-73
2023/07/09 08:08:34;;;;;;;6.63;3.78;;;;;;;;;;4869944;29;20061;-74
2023/07/09 08:11:20;;;;;;;7.57;3.88;;;;;;;;;;4863447;29;20392;-74
2023/07/09 08:14:06;;;;;;;6.85;3.75;;;;;;;;;;4863862;29;20053;-74
2023/07/09 08:16:51;;;;;;;7.63;3.80;;;;;;;;;;4864260;29;20050;-75
2023/07/09 08:19:48;;;;;;;8.93;3.63;;;;;;;;;;4863884;29;20045;-78
2023/07/09 08:22:33;;;;;;;7.35;3.40;;;;;;;;;;4863962;29;20053;-77
2023/07/09 08:25:19;;;;;;;8.75;3.70;;;;;;;;;;4869943;29;20045;-73
2023/07/09 08:28:04;;;;;;;6.88;3.35;;;;;;;;;;4864004;29;20041;-76
2023/07/09 08:30:54;;;;;;;5.70;3.60;;;;;;;;;;4863365;29;20049;-74
2023/07/09 08:33:39;;;;;;;6.45;3.00;;;;;;;;;;4869567;29;20041;-78
2023/07/09 08:36:25;;;;;;;6.65;3.63;;;;;;;;;;4863968;29;20427;-78
2023/07/09 08:39:11;;;;;;;4.60;2.30;;;;;;;;;;4869794;29;20041;-75
2023/07/09 08:42:03;;;;;;;6.22;2.85;;;;;;;;;;4869773;29;20050;-78
2023/07/09 08:45:14;;;;;;;4.55;2.80;;;;;;;;;;4863068;29;20042;-78
2023/07/09 08:48:37;;;;;;;5.45;2.80;;;;;;;;;;4855955;29;20053;-78
2023/07/09 08:51:29;;;;;;;4.70;2.58;;;;;;;;;;4869579;29;20050;-75
2023/07/09 08:54:26;;;;;;;7.13;3.05;;;;;;;;;;4868420;29;20037;-75
2023/07/09 08:57:36;;;;;;;4.82;2.35;;;;;;;;;;4863420;29;20484;-77
2023/07/09 09:00:31;;;;;;;7.43;2.50;;;;;;;;;;4868343;29;20053;-77
2023/07/09 09:03:29;;;;;;;7.35;3.00;;;;;;;;;;4863074;29;20049;-76
2023/07/09 09:06:20;;;;;;;12.48;3.50;;;;;;;;;;4873519;29;20488;-76
2023/07/09 09:09:41;;;;;;;10.10;3.05;;;;;;;;;;4863052;29;20496;-77
2023/07/09 09:12:36;;;;;;;6.28;3.03;;;;;;;;;;4862726;29;20049;-78
2023/07/09 09:15:22;;;;;;;9.32;3.00;;;;;;;;;;4863037;29;20038;-77
2023/07/09 09:18:19;;;;;;;5.38;3.05;;;;;;;;;;4867941;29;20046;-75
2023/07/09 09:21:14;;;;;;;11.93;2.80;;;;;;;;;;4863131;29;20045;-73
2023/07/09 09:24:14;;;;;;;6.95;2.60;;;;;;;;;;4862390;29;20041;-75
2023/07/09 09:27:00;;;;;;;3.88;2.20;;;;;;;;;;4862755;29;20487;-74
2023/07/09 09:29:45;;;;;;;4.35;2.50;;;;;;;;;;4862302;29;20066;-72
2023/07/09 09:32:42;;;;;;;4.68;2.40;;;;;;;;;;4862663;29;20045;-75
2023/07/09 09:35:35;;;;;;;8.57;6.35;;;;;;;;;;4862812;29;20472;-75
2023/07/09 09:38:22;;;;;;;4.22;2.13;;;;;;;;;;4868955;29;20038;-73
2023/07/09 09:41:20;;;;;;;7.22;2.55;;;;;;;;;;4868850;29;20041;-73
2023/07/09 09:44:06;;;;;;;6.70;2.65;;;;;;;;;;4867181;29;20053;-75
2023/07/09 09:46:52;;;;;;;4.50;2.50;;;;;;;;;;4862755;29;20422;-75
2023/07/09 09:49:41;;;;;;;6.25;2.63;;;;;;;;;;4862505;29;20483;-73
2023/07/09 09:52:32;;;;;;;3.15;2.30;;;;;;;;;;4862617;29;20049;-73
2023/07/09 09:55:20;;;;;;;6.18;2.25;;;;;;;;;;4862253;29;20484;-75
2023/07/09 09:58:13;;;;;;;5.85;2.78;;;;;;;;;;4868019;29;20037;-72
2023/07/09 10:01:02;;;;;;;7.47;3.00;;;;;;;;;;4868549;29;20416;-75
2023/07/09 10:03:55;;;;;;;6.13;2.53;;;;;;;;;;4861769;29;20050;-76
2023/07/09 10:06:48;;;;;;;5.22;2.78;;;;;;;;;;4868447;29;20503;-76
2023/07/09 10:09:49;;;;;;;3.65;2.58;;;;;;;;;;4862197;29;20050;-79
2023/07/09 10:12:45;;;;;;;6.40;2.25;;;;;;;;;;4861906;29;20050;-79
2023/07/09 10:15:42;;;;;;;3.05;2.03;;;;;;;;;;4862024;29;20057;-77
2023/07/09 10:18:49;;;;;;;4.38;2.13;;;;;;;;;;4861727;29;20045;-80
2023/07/09 10:21:47;;;;;;;3.08;2.03;;;;;;;;;;4861703;29;20046;-79
2023/07/09 10:24:56;;;;;;;5.50;2.40;;;;;;;;;;4867743;29;20045;-79
2023/07/09 10:28:14;;;;;;;3.38;2.47;;;;;;;;;;4867650;29;20046;-79
2023/07/09 10:31:24;;;;;;;2.53;1.90;;;;;;;;;;4845468;29;20049;-76
2023/07/09 10:34:27;;;;;;;3.55;2.33;;;;;;;;;;4867820;29;20041;-76
2023/07/09 10:37:47;;;;;;;4.37;2.43;;;;;;;;;;4868223;29;20046;-79
2023/07/09 10:40:41;;;;;;;2.80;2.30;;;;;;;;;;4861626;29;20057;-78
2023/07/09 10:43:32;;;;;;;6.45;2.30;;;;;;;;;;4867574;29;20049;-78
2023/07/09 10:46:27;;;;;;;4.55;2.78;;;;;;;;;;4866555;29;20053;-77
2023/07/09 10:49:15;;;;;;;8.10;2.35;;;;;;;;;;4861200;29;20045;-76
2023/07/09 10:52:06;;;;;;;5.10;2.58;;;;;;;;;;4861728;29;20053;-78
2023/07/09 10:54:54;;;;;;;5.97;2.45;;;;;;;;;;4861351;29;20042;-75
2023/07/09 10:57:53;;;;;;;2.20;1.90;;;;;;;;;;4860432;29;20053;-76
2023/07/09 11:00:41;;;;;;;6.43;2.10;;;;;;;;;;4867529;29;20049;-76
2023/07/09 11:03:50;;;;;;;3.42;2.40;;;;;;;;;;4866380;29;20054;-76
2023/07/09 11:06:44;;;;;;;3.97;2.20;;;;;;;;;;4867037;29;20045;-80
2023/07/09 11:09:34;;;;;;;8.48;2.53;;;;;;;;;;4865036;29;20045;-77
2023/07/09 11:12:33;;;;;;;3.78;2.45;;;;;;;;;;4864655;29;20484;-79
2023/07/09 11:15:27;;;;;;;7.72;2.35;;;;;;;;;;4865370;29;20041;-81
2023/07/09 11:18:20;;;;;;;3.47;2.25;;;;;;;;;;4867306;29;20045;-81
2023/07/09 11:21:17;;;;;;;4.07;2.20;;;;;;;;;;4871480;29;20480;-81
2023/07/09 11:24:03;;;;;;;4.32;2.40;;;;;;;;;;4865003;29;20488;-74
2023/07/09 11:26:49;;;;;;;4.65;2.50;;;;;;;;;;4871298;29;20407;-74
2023/07/09 11:29:46;;;;;;;3.25;2.33;;;;;;;;;;4864446;29;20053;-74
2023/07/09 11:32:31;;;;;;;6.45;3.63;;;;;;;;;;4870278;29;20050;-78
2023/07/09 11:35:47;;;;;;;5.25;3.42;;;;;;;;;;4864368;29;20041;-76
2023/07/09 11:38:45;;;;;;;6.60;2.40;;;;;;;;;;4871029;29;20069;-76
2023/07/09 11:41:41;;;;;;;10.27;4.15;;;;;;;;;;4870869;29;20053;-77
2023/07/09 11:44:28;;;;;;;4.10;2.25;;;;;;;;;;4870722;29;20053;-75
2023/07/09 11:47:19;;;;;;;5.05;2.13;;;;;;;;;;4864563;29;20045;-79
2023/07/09 11:50:28;;;;;;;5.72;2.30;;;;;;;;;;4864505;29;20045;-77
2023/07/09 11:53:36;;;;;;;3.45;2.17;;;;;;;;;;4864457;29;20049;-75
2023/07/09 11:56:24;;;;;;;7.75;2.30;;;;;;;;;;4863697;29;20049;-75
2023/07/09 11:59:11;;;;;;;2.83;2.10;;;;;;;;;;4864369;29;20054;-78
2023/07/09 12:02:00;;;;;;;6.53;2.45;;;;;;;;;;4870479;29;20411;-76
2023/07/09 12:04:50;;;;;;;3.92;2.90;;;;;;;;;;4863942;29;20246;-75
2023/07/09 12:07:35;;;;;;;4.03;2.03;;;;;;;;;;4864615;29;20611;-77
2023/07/09 12:10:24;;;;;;;3.50;2.20;;;;;;;;;;4864400;29;20045;-77
2023/07/09 12:13:12;;;;;;;6.90;2.30;;;;;;;;;;4864374;29;20049;-79
2023/07/09 12:15:57;;;;;;;4.05;2.13;;;;;;;;;;4863885;29;20041;-77
2023/07/09 12:18:43;;;;;;;2.90;1.90;;;;;;;;;;4863604;29;20437;-78
2023/07/09 12:21:31;;;;;;;3.75;2.33;;;;;;;;;;4863738;29;20112;-78
2023/07/09 12:24:25;;;;;;;3.92;2.20;;;;;;;;;;4863636;29;20053;-75
2023/07/09 12:27:20;;;;;;;3.20;2.30;;;;;;;;;;4863906;29;20049;-75
2023/07/09 12:30:11;;;;;;;2.50;2.10;;;;;;;;;;4866298;29;20054;-75
2023/07/09 12:32:58;;;;;;;3.88;2.20;;;;;;;;;;4863548;29;20045;-74
2023/07/09 12:35:44;;;;;;;2.72;2.13;;;;;;;;;;4863415;29;20049;-78
2023/07/09 12:38:32;;;;;;;5.22;2.40;;;;;;;;;;4863700;29;20045;-75
2023/07/09 12:41:31;;;;;;;6.57;2.10;;;;;;;;;;4863799;29;20049;-76
2023/07/09 12:44:19;;;;;;;5.22;2.30;;;;;;;;;;4870066;29;20049;-76
2023/07/09 12:47:04;;;;;;;4.53;2.28;;;;;;;;;;4863621;29;20053;-75
2023/07/09 12:49:51;;;;;;;3.55;2.30;;;;;;;;;;4869652;29;20041;-75
2023/07/09 12:52:46;;;;;;;3.17;2.20;;;;;;;;;;4869664;29;20045;-76
2023/07/09 12:55:39;;;;;;;3.70;2.25;;;;;;;;;;4863616;29;20472;-73
2023/07/09 12:58:29;;;;;;;9.45;2.65;;;;;;;;;;4869744;29;20045;-73
2023/07/09 13:01:16;;;;;;;3.22;2.33;;;;;;;;;;4869332;29;20424;-75
2023/07/09 13:04:02;;;;;;;3.53;2.10;;;;;;;;;;4869554;29;20041;-75
2023/07/09 13:06:48;;;;;;;5.00;2.22;;;;;;;;;;4869173;29;20053;-74
2023/07/09 13:09:34;;;;;;;6.20;2.50;;;;;;;;;;4863201;29;20053;-77
2023/07/09 13:12:20;;;;;;;5.20;2.30;;;;;;;;;;4863105;29;20049;-80
2023/07/09 13:19:18;;;;;;;4.07;2.35;;;;;;;;;;4862570;29;20045;-76
2023/07/09 13:22:05;;;;;;;3.60;2.30;;;;;;;;;;4863502;29;20473;-77
2023/07/09 13:24:51;;;;;;;6.70;3.03;;;;;;;;;;4868823;29;20396;-76
2023/07/09 13:27:38;;;;;;;2.80;2.20;;;;;;;;;;4868891;29;20041;-79
2023/07/09 13:30:23;;;;;;;5.90;2.75;;;;;;;;;;4862317;29;20049;-77
2023/07/09 13:33:10;;;;;;;5.97;2.40;;;;;;;;;;4868460;29;20407;-76
2023/07/09 13:35:56;;;;;;;3.45;2.20;;;;;;;;;;4862488;29;20049;-76
2023/07/09 13:38:42;;;;;;;4.13;2.45;;;;;;;;;;4862449;29;20050;-77
2023/07/09 13:41:27;;;;;;;5.97;2.42;;;;;;;;;;4867445;29;20050;-77
2023/07/09 13:44:31;;;;;;;6.38;2.47;;;;;;;;;;4862332;29;20046;-77
2023/07/09 13:47:18;;;;;;;9.27;2.50;;;;;;;;;;4868826;29;20057;-79
2023/07/09 13:50:04;;;;;;;5.28;2.30;;;;;;;;;;4862248;29;20067;-77
2023/07/09 13:52:50;;;;;;;3.15;2.20;;;;;;;;;;4868823;29;20053;-78
2023/07/09 13:55:35;;;;;;;3.22;2.33;;;;;;;;;;4862221;29;20428;-78
2023/07/09 13:58:24;;;;;;;4.10;2.75;;;;;;;;;;4868594;29;20064;-77
2023/07/09 14:01:13;;;;;;;8.90;2.72;;;;;;;;;;4868422;29;20423;-78
2023/07/09 14:03:58;;;;;;;8.18;2.72;;;;;;;;;;4868236;29;20046;-78
2023/07/09 14:06:47;;;;;;;7.57;2.65;;;;;;;;;;4862481;29;20037;-78
2023/07/09 14:09:34;;;;;;;8.52;2.63;;;;;;;;;;4868516;29;20049;-77
2023/07/09 14:12:19;;;;;;;4.60;2.25;;;;;;;;;;4868151;29;20053;-77
2023/07/09 14:15:17;;;;;;;2.78;2.20;;;;;;;;;;4868085;29;20045;-77
2023/07/09 14:18:04;;;;;;;5.53;2.60;;;;;;;;;;4862217;29;20045;-75
2023/07/09 14:20:50;;;;;;;4.78;2.40;;;;;;;;;;4868216;29;20042;-75
2023/07/09 14:23:37;;;;;;;3.92;2.50;;;;;;;;;;4867966;29;20054;-75
2023/07/09 14:26:26;;;;;;;4.93;2.85;;;;;;;;;;4867305;29;20053;-77
2023/07/09 14:29:13;;;;;;;5.55;3.20;;;;;;;;;;4867006;29;20403;-78
2023/07/09 14:31:59;;;;;;;8.48;3.20;;;;;;;;;;4867929;29;20073;-78
2023/07/09 14:34:44;;;;;;;5.85;2.75;;;;;;;;;;4867936;29;20037;-80
2023/07/09 14:37:30;;;;;;;3.92;2.80;;;;;;;;;;4868798;29;20053;-83
2023/07/09 14:40:19;;;;;;;4.63;2.90;;;;;;;;;;4861872;29;20049;-82
2023/07/09 14:43:23;;;;;;;4.53;3.00;;;;;;;;;;4868238;29;20061;-81
2023/07/09 14:46:15;;;;;;;8.03;3.63;;;;;;;;;;4868169;29;20050;-81
2023/07/09 14:49:00;;;;;;;9.13;3.38;;;;;;;;;;4862067;29;20057;-78
2023/07/09 14:51:47;;;;;;;6.68;3.33;;;;;;;;;;4867952;29;20042;-77
2023/07/09 14:54:32;;;;;;;8.10;3.13;;;;;;;;;;4866574;29;20041;-79
2023/07/09 14:57:26;;;;;;;4.95;3.08;;;;;;;;;;4867414;29;20057;-75
2023/07/09 15:00:13;;;;;;;4.70;2.72;;;;;;;;;;4861605;29;20053;-77
2023/07/09 15:02:59;;;;;;;4.63;2.90;;;;;;;;;;4867393;29;20053;-76
2023/07/09 15:05:44;;;;;;;20.85;2.80;;;;;;;;;;4867209;29;20488;-77
2023/07/09 15:08:30;;;;;;;6.78;2.78;;;;;;;;;;4861360;29;20404;-78
2023/07/09 15:11:16;;;;;;;7.25;2.92;;;;;;;;;;4859753;29;20045;-76
2023/07/09 15:14:01;;;;;;;4.13;2.80;;;;;;;;;;4867647;29;20041;-78
2023/07/09 15:16:49;;;;;;;9.38;2.72;;;;;;;;;;4861222;29;20049;-76
2023/07/09 15:19:34;;;;;;;5.40;2.38;;;;;;;;;;4861103;29;20045;-75
2023/07/09 15:22:33;;;;;;;3.65;2.70;;;;;;;;;;4861196;29;20053;-76
2023/07/09 15:25:23;;;;;;;5.82;2.55;;;;;;;;;;4867022;29;20041;-78
2023/07/09 15:28:11;;;;;;;5.60;2.67;;;;;;;;;;4867747;29;20057;-77
2023/07/09 15:30:55;;;;;;;4.43;2.35;;;;;;;;;;4860812;29;20041;-79
2023/07/09 15:33:40;;;;;;;4.18;2.58;;;;;;;;;;4861007;29;20053;-77
2023/07/09 15:36:26;;;;;;;3.83;2.60;;;;;;;;;;4867459;29;20633;-76
2023/07/09 15:39:12;;;;;;;4.55;2.40;;;;;;;;;;4867155;29;20049;-78
2023/07/09 15:41:57;;;;;;;3.97;3.20;;;;;;;;;;4860022;29;20463;-78
2023/07/09 15:44:42;;;;;;;4.90;2.40;;;;;;;;;;4860772;29;20487;-78
2023/07/09 15:47:28;;;;;;;4.60;2.50;;;;;;;;;;4861103;29;20053;-79
2023/07/09 15:50:20;;;;;;;6.22;2.50;;;;;;;;;;4860826;29;20049;-76
2023/07/09 15:53:10;;;;;;;3.17;2.35;;;;;;;;;;4861052;29;20041;-79
2023/07/09 15:56:00;;;;;;;3.30;2.28;;;;;;;;;;4869668;29;20042;-77
2023/07/09 15:58:47;;;;;;;4.22;2.17;;;;;;;;;;4870577;29;20057;-77
2023/07/09 16:01:32;;;;;;;6.25;2.50;;;;;;;;;;4870555;29;20484;-78
2023/07/09 16:04:18;;;;;;;2.42;2.17;;;;;;;;;;4864303;29;20045;-78
2023/07/09 16:07:03;;;;;;;7.07;2.30;;;;;;;;;;4864671;29;20046;-79
2023/07/09 16:09:50;;;;;;;4.85;2.63;;;;;;;;;;4870259;29;20053;-77
2023/07/09 16:12:36;;;;;;;4.88;3.05;;;;;;;;;;4869652;29;20053;-77
2023/07/09 16:15:25;;;;;;;6.85;2.85;;;;;;;;;;4869458;29;20045;-79
2023/07/09 16:18:11;;;;;;;8.02;2.80;;;;;;;;;;4870539;29;20046;-78
2023/07/09 16:20:56;;;;;;;4.22;2.80;;;;;;;;;;4864036;29;20492;-78
2023/07/09 16:23:42;;;;;;;2.88;2.35;;;;;;;;;;4863833;29;20045;-75
2023/07/09 16:26:27;;;;;;;5.68;2.70;;;;;;;;;;4864153;29;20046;-74
2023/07/09 16:29:21;;;;;;;5.55;2.80;;;;;;;;;;4868728;29;20050;-75
2023/07/09 16:32:08;;;;;;;4.53;2.15;;;;;;;;;;4869964;29;20041;-79
2023/07/09 16:34:53;;;;;;;6.85;2.60;;;;;;;;;;4863800;29;20488;-78
2023/07/09 16:37:39;;;;;;;3.13;2.30;;;;;;;;;;4869966;29;20049;-79
2023/07/09 16:40:29;;;;;;;3.80;2.47;;;;;;;;;;4870931;29;20484;-79
2023/07/09 16:43:16;;;;;;;3.80;2.42;;;;;;;;;;4870510;29;20399;-78
2023/07/09 16:46:01;;;;;;;2.88;2.30;;;;;;;;;;4869676;29;20049;-79
2023/07/09 16:48:47;;;;;;;6.05;2.40;;;;;;;;;;4868865;29;20468;-77
2023/07/09 16:51:33;;;;;;;7.13;2.42;;;;;;;;;;4863475;29;20050;-76
2023/07/09 16:54:18;;;;;;;9.30;3.00;;;;;;;;;;4863523;29;20049;-78
2023/07/09 16:57:04;;;;;;;6.35;2.58;;;;;;;;;;4862896;29;20053;-76
2023/07/09 16:59:50;;;;;;;4.60;2.70;;;;;;;;;;4870750;29;20396;-77